Time,TemperatureF,DewpointF,PressureIn,WindDirection,WindDirectionDegrees,WindSpeedMPH,WindSpeedGustMPH,Humidity,HourlyPrecipIn,Conditions,Clouds,dailyrainin,SolarRadiationWatts/m^2,SoftwareType,DateUTC
2013-12-07 00:02:00,-16.0,-25.0,-100.00,SE,138,3.0,5.0,64,0.00,,,0.00,0.000000,,2013-12-07 07:02:00,
2013-12-07 00:11:00,-16.0,-25.0,-100.00,SE,138,3.0,5.0,64,0.00,,,0.00,0.000000,,2013-12-07 07:11:00,
2013-12-07 00:42:00,-15.0,-24.0,-100.00,NNE,29,0.0,4.0,63,0.00,,,0.00,0.000000,,2013-12-07 07:42:00,
2013-12-07 00:53:00,-15.0,-24.0,-100.00,NNE,29,0.0,4.0,63,0.00,,,0.00,0.000000,,2013-12-07 07:53:00,
2013-12-07 01:02:00,-15.0,-24.0,-100.00,NNE,29,0.0,4.0,63,0.00,,,0.00,0.000000,,2013-12-07 08:02:00,
2013-12-07 01:12:00,-15.0,-24.0,-100.00,NNE,29,0.0,4.0,63,0.00,,,0.00,0.000000,,2013-12-07 08:12:00,
2013-12-07 01:42:00,-16.0,-24.0,-100.00,East,100,1.0,4.0,65,0.00,,,0.00,0.000000,,2013-12-07 08:42:00,
2013-12-07 01:52:00,-16.0,-24.0,-100.00,East,100,1.0,4.0,65,0.00,,,0.00,0.000000,,2013-12-07 08:52:00,
2013-12-07 02:02:00,-16.0,-24.0,-100.00,East,100,1.0,4.0,65,0.00,,,0.00,0.000000,,2013-12-07 09:02:00,
2013-12-07 02:12:00,-16.0,-24.0,-100.00,East,100,1.0,4.0,65,0.00,,,0.00,0.000000,,2013-12-07 09:12:00,
2013-12-07 02:44:00,-17.0,-26.0,-100.00,ESE,108,0.0,5.0,63,0.00,,,0.00,0.000000,,2013-12-07 09:44:00,
2013-12-07 02:53:00,-17.0,-26.0,-100.00,ESE,108,0.0,5.0,63,0.00,,,0.00,0.000000,,2013-12-07 09:53:00,
2013-12-07 03:03:00,-17.0,-26.0,-100.00,ESE,108,0.0,5.0,63,0.00,,,0.00,0.000000,,2013-12-07 10:03:00,
2013-12-07 03:13:00,-17.0,-26.0,-100.00,ESE,108,0.0,5.0,63,0.00,,,0.00,0.000000,,2013-12-07 10:13:00,
2013-12-07 03:43:00,-17.0,-26.0,-100.00,SE,124,2.0,4.0,63,0.00,,,0.00,0.000000,,2013-12-07 10:43:00,
2013-12-07 03:53:00,-17.0,-26.0,-100.00,SE,124,2.0,4.0,63,0.00,,,0.00,0.000000,,2013-12-07 10:53:00,
2013-12-07 04:02:00,-17.0,-26.0,-100.00,SE,124,2.0,4.0,63,0.00,,,0.00,0.000000,,2013-12-07 11:02:00,
2013-12-07 04:12:00,-17.0,-26.0,-100.00,SE,124,2.0,4.0,63,0.00,,,0.00,0.000000,,2013-12-07 11:12:00,
2013-12-07 04:42:00,-18.0,-26.0,-100.00,SE,133,3.0,4.0,64,0.00,,,0.00,0.000000,,2013-12-07 11:42:00,
2013-12-07 04:52:00,-18.0,-26.0,-100.00,SE,133,3.0,4.0,64,0.00,,,0.00,0.000000,,2013-12-07 11:52:00,
2013-12-07 05:02:00,-18.0,-26.0,-100.00,SE,133,3.0,4.0,64,0.00,,,0.00,0.000000,,2013-12-07 12:02:00,
2013-12-07 05:11:00,-18.0,-26.0,-100.00,SE,133,3.0,4.0,64,0.00,,,0.00,0.000000,,2013-12-07 12:11:00,
2013-12-07 05:43:00,-19.0,-28.0,-100.00,SE,146,3.0,5.0,63,0.00,,,0.00,0.000000,,2013-12-07 12:43:00,
2013-12-07 05:52:00,-19.0,-28.0,-100.00,SE,146,3.0,5.0,63,0.00,,,0.00,0.000000,,2013-12-07 12:52:00,
2013-12-07 06:02:00,-19.0,-28.0,-100.00,SE,146,3.0,5.0,63,0.00,,,0.00,0.000000,,2013-12-07 13:02:00,
2013-12-07 06:11:00,-19.0,-28.0,-100.00,SE,146,3.0,5.0,63,0.00,,,0.00,0.000000,,2013-12-07 13:11:00,
2013-12-07 06:42:00,-19.0,-28.0,-100.00,SE,138,3.0,4.0,61,0.00,,,0.00,0.000000,,2013-12-07 13:42:00,
2013-12-07 06:52:00,-19.0,-28.0,-100.00,SE,138,3.0,4.0,61,0.00,,,0.00,0.000000,,2013-12-07 13:52:00,
2013-12-07 07:02:00,-19.0,-28.0,-100.00,SE,138,3.0,4.0,61,0.00,,,0.00,0.000000,,2013-12-07 14:02:00,
2013-12-07 07:11:00,-19.0,-28.0,-100.00,SE,138,3.0,4.0,61,0.00,,,0.00,0.000000,,2013-12-07 14:11:00,
2013-12-07 07:42:00,-18.0,-27.0,-100.00,SSE,157,0.0,4.0,62,0.00,,,0.00,0.000000,,2013-12-07 14:42:00,
2013-12-07 07:52:00,-18.0,-27.0,-100.00,SSE,157,0.0,4.0,62,0.00,,,0.00,0.000000,,2013-12-07 14:52:00,
2013-12-07 08:02:00,-18.0,-27.0,-100.00,SSE,157,0.0,4.0,62,0.00,,,0.00,0.000000,,2013-12-07 15:02:00,
2013-12-07 08:11:00,-18.0,-27.0,-100.00,SSE,157,0.0,4.0,62,0.00,,,0.00,0.000000,,2013-12-07 15:11:00,
2013-12-07 08:43:00,-18.0,-27.0,-100.00,SE,135,1.0,3.0,61,0.00,,,0.00,1.000000,,2013-12-07 15:43:00,
2013-12-07 08:54:00,-18.0,-27.0,-100.00,SE,135,1.0,3.0,61,0.00,,,0.00,1.000000,,2013-12-07 15:54:00,
2013-12-07 09:03:00,-18.0,-27.0,-100.00,SE,135,1.0,3.0,61,0.00,,,0.00,1.000000,,2013-12-07 16:03:00,
2013-12-07 09:13:00,-18.0,-27.0,-100.00,SE,135,1.0,3.0,61,0.00,,,0.00,1.000000,,2013-12-07 16:13:00,
2013-12-07 09:43:00,-15.0,-25.0,-100.00,North,0,1.0,2.0,60,0.00,,,0.00,47.000000,,2013-12-07 16:43:00,
2013-12-07 09:53:00,-15.0,-25.0,-100.00,North,0,1.0,2.0,60,0.00,,,0.00,47.000000,,2013-12-07 16:53:00,
2013-12-07 10:02:00,-15.0,-25.0,-100.00,North,0,1.0,2.0,60,0.00,,,0.00,47.000000,,2013-12-07 17:02:00,
2013-12-07 10:12:00,-15.0,-25.0,-100.00,North,0,1.0,2.0,60,0.00,,,0.00,47.000000,,2013-12-07 17:12:00,
2013-12-07 10:43:00,-13.0,-23.0,-100.00,NW,304,2.0,4.0,59,0.00,,,0.00,205.000000,,2013-12-07 17:43:00,
2013-12-07 10:52:00,-13.0,-23.0,-100.00,NW,304,2.0,4.0,59,0.00,,,0.00,205.000000,,2013-12-07 17:52:00,
2013-12-07 11:02:00,-13.0,-23.0,-100.00,NW,304,2.0,4.0,59,0.00,,,0.00,205.000000,,2013-12-07 18:02:00,
2013-12-07 11:12:00,-13.0,-23.0,-100.00,NW,304,2.0,4.0,59,0.00,,,0.00,205.000000,,2013-12-07 18:12:00,
2013-12-07 11:43:00,-11.0,-22.0,-100.00,NNW,347,3.0,5.0,56,0.00,,,0.00,307.000000,,2013-12-07 18:43:00,
2013-12-07 11:52:00,-11.0,-22.0,-100.00,NNW,347,3.0,5.0,56,0.00,,,0.00,307.000000,,2013-12-07 18:52:00,
2013-12-07 12:02:00,-11.0,-22.0,-100.00,NNW,347,3.0,5.0,56,0.00,,,0.00,307.000000,,2013-12-07 19:02:00,
2013-12-07 12:11:00,-11.0,-22.0,-100.00,NNW,347,3.0,5.0,56,0.00,,,0.00,307.000000,,2013-12-07 19:11:00,
2013-12-07 12:42:00,-7.0,-20.0,-100.00,WNW,303,5.0,7.0,52,0.00,,,0.00,441.000000,,2013-12-07 19:42:00,
2013-12-07 12:52:00,-7.0,-20.0,-100.00,WNW,303,5.0,7.0,52,0.00,,,0.00,441.000000,,2013-12-07 19:52:00,
2013-12-07 13:02:00,-7.0,-20.0,-100.00,WNW,303,5.0,7.0,52,0.00,,,0.00,441.000000,,2013-12-07 20:02:00,
2013-12-07 13:11:00,-7.0,-20.0,-100.00,WNW,303,5.0,7.0,52,0.00,,,0.00,441.000000,,2013-12-07 20:11:00,
2013-12-07 13:42:00,-3.0,-19.0,-100.00,West,273,2.0,7.0,45,0.00,,,0.00,449.000000,,2013-12-07 20:42:00,
2013-12-07 13:53:00,-3.0,-19.0,-100.00,West,273,2.0,7.0,45,0.00,,,0.00,449.000000,,2013-12-07 20:53:00,
2013-12-07 14:02:00,-3.0,-19.0,-100.00,West,273,2.0,7.0,45,0.00,,,0.00,449.000000,,2013-12-07 21:02:00,
2013-12-07 14:11:00,-3.0,-19.0,-100.00,West,273,2.0,7.0,45,0.00,,,0.00,449.000000,,2013-12-07 21:11:00,
2013-12-07 14:43:00,-1.0,-19.0,-100.00,West,260,3.0,6.0,41,0.00,,,0.00,403.000000,,2013-12-07 21:43:00,
2013-12-07 14:53:00,-1.0,-19.0,-100.00,West,260,3.0,6.0,41,0.00,,,0.00,403.000000,,2013-12-07 21:53:00,
2013-12-07 15:03:00,-1.0,-19.0,-100.00,West,260,3.0,6.0,41,0.00,,,0.00,403.000000,,2013-12-07 22:03:00,
2013-12-07 15:13:00,-1.0,-19.0,-100.00,West,260,3.0,6.0,41,0.00,,,0.00,403.000000,,2013-12-07 22:13:00,
2013-12-07 15:42:00,0.0,-18.0,-100.00,West,274,4.0,5.0,42,0.00,,,0.00,283.000000,,2013-12-07 22:42:00,
2013-12-07 15:53:00,0.0,-18.0,-100.00,West,274,4.0,5.0,42,0.00,,,0.00,283.000000,,2013-12-07 22:53:00,
2013-12-07 16:02:00,0.0,-18.0,-100.00,West,274,4.0,5.0,42,0.00,,,0.00,283.000000,,2013-12-07 23:02:00,
2013-12-07 16:12:00,0.0,-18.0,-100.00,West,274,4.0,5.0,42,0.00,,,0.00,283.000000,,2013-12-07 23:12:00,
2013-12-07 16:42:00,0.0,-17.0,-100.00,NNW,331,3.0,5.0,43,0.00,,,0.00,117.000000,,2013-12-07 23:42:00,
2013-12-07 16:52:00,0.0,-17.0,-100.00,NNW,331,3.0,5.0,43,0.00,,,0.00,117.000000,,2013-12-07 23:52:00,
2013-12-07 17:02:00,0.0,-17.0,-100.00,NNW,331,3.0,5.0,43,0.00,,,0.00,117.000000,,2013-12-08 00:02:00,
2013-12-07 17:11:00,0.0,-17.0,-100.00,NNW,331,3.0,5.0,43,0.00,,,0.00,117.000000,,2013-12-08 00:11:00,
2013-12-07 17:42:00,-10.0,-21.0,-100.00,SSE,164,4.0,7.0,58,0.00,,,0.00,8.000000,,2013-12-08 00:42:00,
2013-12-07 17:52:00,-10.0,-21.0,-100.00,SSE,164,4.0,7.0,58,0.00,,,0.00,8.000000,,2013-12-08 00:52:00,
2013-12-07 18:02:00,-10.0,-21.0,-100.00,SSE,164,4.0,7.0,58,0.00,,,0.00,8.000000,,2013-12-08 01:02:00,
2013-12-07 18:12:00,-10.0,-21.0,-100.00,SSE,164,4.0,7.0,58,0.00,,,0.00,8.000000,,2013-12-08 01:12:00,
2013-12-07 18:42:00,-11.0,-19.0,-100.00,SSE,159,3.0,7.0,65,0.00,,,0.00,0.000000,,2013-12-08 01:42:00,
2013-12-07 18:52:00,-11.0,-19.0,-100.00,SSE,159,3.0,7.0,65,0.00,,,0.00,0.000000,,2013-12-08 01:52:00,
2013-12-07 19:02:00,-11.0,-19.0,-100.00,SSE,159,3.0,7.0,65,0.00,,,0.00,0.000000,,2013-12-08 02:02:00,
2013-12-07 19:12:00,-11.0,-19.0,-100.00,SSE,159,3.0,7.0,65,0.00,,,0.00,0.000000,,2013-12-08 02:12:00,
2013-12-07 19:43:00,-12.0,-21.0,-100.00,ESE,121,4.0,7.0,63,0.00,,,0.00,0.000000,,2013-12-08 02:43:00,
2013-12-07 19:52:00,-12.0,-21.0,-100.00,ESE,121,4.0,7.0,63,0.00,,,0.00,0.000000,,2013-12-08 02:52:00,
2013-12-07 20:02:00,-12.0,-21.0,-100.00,ESE,121,4.0,7.0,63,0.00,,,0.00,0.000000,,2013-12-08 03:02:00,
2013-12-07 20:11:00,-12.0,-21.0,-100.00,ESE,121,4.0,7.0,63,0.00,,,0.00,0.000000,,2013-12-08 03:11:00,
2013-12-07 20:44:00,-12.0,-20.0,-100.00,ESE,114,3.0,6.0,66,0.00,,,0.00,0.000000,,2013-12-08 03:44:00,
2013-12-07 20:54:00,-12.0,-20.0,-100.00,ESE,114,3.0,6.0,66,0.00,,,0.00,0.000000,,2013-12-08 03:54:00,
2013-12-07 21:02:00,-999.0,-99.9,-100.00,ESE,114,3.0,6.0,-999,0.00,,,0.00,0.000000,,2013-12-08 04:02:00,
2013-12-07 21:13:00,-12.0,-20.0,-100.00,ESE,114,3.0,6.0,66,0.00,,,0.00,0.000000,,2013-12-08 04:13:00,
2013-12-07 21:43:00,-13.0,-21.0,-100.00,East,99,3.0,6.0,65,0.00,,,0.00,0.000000,,2013-12-08 04:43:00,
2013-12-07 21:53:00,-13.0,-21.0,-100.00,East,99,3.0,6.0,65,0.00,,,0.00,0.000000,,2013-12-08 04:53:00,
2013-12-07 22:02:00,-13.0,-21.0,-100.00,East,99,3.0,6.0,65,0.00,,,0.00,0.000000,,2013-12-08 05:02:00,
2013-12-07 22:12:00,-13.0,-21.0,-100.00,East,99,3.0,6.0,65,0.00,,,0.00,0.000000,,2013-12-08 05:12:00,
2013-12-07 22:43:00,-14.0,-22.0,-100.00,East,93,2.0,5.0,65,0.00,,,0.00,0.000000,,2013-12-08 05:43:00,
2013-12-07 22:53:00,-14.0,-22.0,-100.00,East,93,2.0,5.0,65,0.00,,,0.00,0.000000,,2013-12-08 05:53:00,
2013-12-07 23:02:00,-14.0,-22.0,-100.00,East,93,2.0,5.0,65,0.00,,,0.00,0.000000,,2013-12-08 06:02:00,
2013-12-07 23:12:00,-14.0,-22.0,-100.00,East,93,2.0,5.0,65,0.00,,,0.00,0.000000,,2013-12-08 06:12:00,
2013-12-07 23:42:00,-15.0,-23.0,-100.00,ENE,77,2.0,5.0,66,0.00,,,0.00,0.000000,,2013-12-08 06:42:00,
2013-12-07 23:52:00,-15.0,-23.0,-100.00,ENE,77,2.0,5.0,66,0.00,,,0.00,0.000000,,2013-12-08 06:52:00,